Time;durP1;ratioP1;P1;durP2;ratioP2;P2;SDS_P1;SDS_P2;PMS_P1;PMS_P2;Temp;Humidity;BMP_temperature;BMP_pressure;BME280_temperature;BME280_humidity;BME280_pressure;Samples;Min_cycle;Max_cycle;Signal;HPM_P1;HPM_P2
2022/03/03 00:00:08;;;;;;;8.50;4.93;;;;;;;-1.25;40.34;99307.66;4920448;28;20047;-69
2022/03/03 00:02:37;;;;;;;7.53;5.05;;;;;;;-1.23;39.78;99297.13;4920863;28;20039;-72
2022/03/03 00:05:03;;;;;;;10.82;5.85;;;;;;;-1.29;39.90;99292.94;4922468;28;20102;-75
2022/03/03 00:07:28;;;;;;;10.70;5.55;;;;;;;-1.33;39.84;99299.16;4920243;29;20506;-76
2022/03/03 00:09:53;;;;;;;9.10;5.40;;;;;;;-1.32;39.95;99284.31;4919801;29;20561;-71
2022/03/03 00:12:18;;;;;;;10.15;5.75;;;;;;;-1.35;40.51;99285.25;4920028;28;20434;-71
2022/03/03 00:14:43;;;;;;;14.00;5.38;;;;;;;-1.38;40.66;99285.38;4920387;29;20142;-69
2022/03/03 00:17:08;;;;;;;8.20;4.55;;;;;;;-1.39;40.14;99274.94;4921153;28;20051;-69
2022/03/03 00:19:33;;;;;;;10.60;5.05;;;;;;;-1.38;40.13;99280.16;4921936;29;20053;-71
2022/03/03 00:21:57;;;;;;;9.57;4.82;;;;;;;-1.37;40.16;99271.41;4921080;28;20039;-69
2022/03/03 00:24:22;;;;;;;9.85;5.57;;;;;;;-1.44;40.14;99271.59;4902882;29;20450;-70
2022/03/03 00:26:47;;;;;;;9.95;4.60;;;;;;;-1.48;40.44;99269.09;4918379;28;20039;-72
2022/03/03 00:29:11;;;;;;;12.73;5.45;;;;;;;-1.47;41.27;99259.50;4919452;29;20047;-67
2022/03/03 00:31:36;;;;;;;11.88;5.28;;;;;;;-1.47;41.04;99246.44;4919163;29;20548;-69
2022/03/03 00:34:01;;;;;;;8.50;4.72;;;;;;;-1.43;40.99;99250.66;4918368;29;20042;-66
2022/03/03 00:36:27;;;;;;;11.23;4.93;;;;;;;-1.41;40.54;99241.00;4919544;28;20414;-67
2022/03/03 00:38:52;;;;;;;8.80;5.07;;;;;;;-1.37;40.87;99254.84;4919560;28;20126;-67
2022/03/03 00:41:18;;;;;;;11.80;4.68;;;;;;;-1.39;40.89;99254.91;4918686;29;20049;-66
2022/03/03 00:43:42;;;;;;;9.75;5.13;;;;;;;-1.39;41.32;99252.28;4919872;28;20051;-66
2022/03/03 00:46:07;;;;;;;11.18;5.40;;;;;;;-1.37;40.77;99253.09;4918098;29;20486;-66
2022/03/03 00:48:32;;;;;;;10.32;5.07;;;;;;;-1.33;41.08;99246.00;4919486;28;20043;-68
2022/03/03 00:50:56;;;;;;;9.90;5.32;;;;;;;-1.31;40.51;99242.44;4920719;29;20043;-68
2022/03/03 00:53:23;;;;;;;11.20;5.18;;;;;;;-1.33;41.07;99239.00;4918294;29;20050;-75
2022/03/03 00:55:47;;;;;;;17.65;6.25;;;;;;;-1.33;41.25;99241.63;4902495;29;20403;-72
2022/03/03 00:58:12;;;;;;;12.40;5.25;;;;;;;-1.34;41.24;99233.81;4919591;28;20595;-70
2022/03/03 01:00:37;;;;;;;15.15;5.70;;;;;;;-1.35;41.52;99225.13;4917896;29;20047;-72
2022/03/03 01:03:02;;;;;;;15.63;5.63;;;;;;;-1.37;41.83;99226.09;4919851;28;20405;-70
2022/03/03 01:05:27;;;;;;;10.88;5.07;;;;;;;-1.36;41.70;99222.59;4919339;29;20051;-71
2022/03/03 01:07:51;;;;;;;18.45;5.78;;;;;;;-1.37;41.88;99218.25;4919003;29;20057;-71
2022/03/03 01:10:16;;;;;;;9.98;5.97;;;;;;;-1.39;42.32;99220.06;4918684;29;20043;-73
2022/03/03 01:12:41;;;;;;;9.02;5.43;;;;;;;-1.40;42.04;99224.41;4920377;28;20130;-69
2022/03/03 01:15:09;;;;;;;12.60;6.78;;;;;;;-1.41;41.53;99217.47;4919987;29;20051;-72
2022/03/03 01:17:34;;;;;;;10.23;4.95;;;;;;;-1.41;41.71;99219.22;4918663;29;20134;-72
2022/03/03 01:19:58;;;;;;;15.40;6.72;;;;;;;-1.41;41.65;99222.72;4920337;29;20138;-68
2022/03/03 01:22:24;;;;;;;10.45;5.00;;;;;;;-1.38;41.32;99211.31;4921234;28;20031;-70
2022/03/03 01:24:49;;;;;;;9.90;6.45;;;;;;;-1.41;41.01;99212.25;4919433;29;20090;-71
2022/03/03 01:27:14;;;;;;;11.07;5.47;;;;;;;-1.51;41.66;99203.84;4921136;29;20074;-71
2022/03/03 01:29:39;;;;;;;12.45;6.22;;;;;;;-1.62;42.76;99197.22;4917935;29;20043;-72
2022/03/03 01:32:05;;;;;;;15.27;6.70;;;;;;;-1.64;42.22;99205.09;4921448;28;20047;-76
2022/03/03 01:34:30;;;;;;;12.95;5.68;;;;;;;-1.72;42.36;99212.31;4918925;29;20520;-72
2022/03/03 01:36:55;;;;;;;12.80;5.45;;;;;;;-1.68;41.71;99197.38;4919903;28;20409;-72
2022/03/03 01:39:19;;;;;;;11.50;5.43;;;;;;;-1.83;42.39;99188.25;4916929;28;20047;-73
2022/03/03 01:41:44;;;;;;;12.35;5.85;;;;;;;-1.88;42.53;99190.13;4918604;28;20050;-72
2022/03/03 01:44:09;;;;;;;14.10;6.30;;;;;;;-1.94;41.92;99190.31;4917700;28;20081;-71
2022/03/03 01:46:34;;;;;;;12.38;6.28;;;;;;;-1.98;42.34;99186.91;4916551;29;20062;-73
2022/03/03 01:48:59;;;;;;;9.88;6.05;;;;;;;-2.05;42.54;99174.09;4917273;29;20054;-73
2022/03/03 01:51:23;;;;;;;13.15;6.07;;;;;;;-2.02;42.20;99173.97;4919024;28;20035;-73
2022/03/03 01:53:48;;;;;;;13.90;6.10;;;;;;;-2.09;42.20;99170.69;4919240;28;20043;-73
2022/03/03 01:56:13;;;;;;;11.88;5.85;;;;;;;-2.09;42.62;99168.06;4900455;29;20071;-72
2022/03/03 01:58:39;;;;;;;14.30;5.55;;;;;;;-2.12;42.70;99175.13;4915846;29;20365;-72
2022/03/03 02:01:03;;;;;;;17.05;6.53;;;;;;;-2.19;43.15;99174.47;4916952;29;20446;-72
2022/03/03 02:03:28;;;;;;;13.05;6.15;;;;;;;-2.25;43.76;99157.19;4917783;28;20051;-74
2022/03/03 02:05:53;;;;;;;12.88;5.13;;;;;;;-2.27;44.05;99151.19;4918107;28;20410;-71
2022/03/03 02:08:18;;;;;;;13.65;5.90;;;;;;;-2.24;43.29;99148.47;4917792;28;20134;-70
2022/03/03 02:10:42;;;;;;;9.23;5.53;;;;;;;-2.24;43.55;99143.25;4916408;29;20407;-67
2022/03/03 02:13:08;;;;;;;9.82;5.60;;;;;;;-2.23;43.79;99147.56;4915576;29;20441;-66
2022/03/03 02:15:33;;;;;;;13.25;5.20;;;;;;;-2.23;43.60;99147.56;4899433;29;20529;-67
2022/03/03 02:17:57;;;;;;;12.38;5.38;;;;;;;-2.25;43.33;99138.06;4918271;28;20490;-67
2022/03/03 02:20:24;;;;;;;12.27;6.10;;;;;;;-2.23;43.96;99131.91;4923891;28;20047;-66
2022/03/03 02:22:51;;;;;;;13.93;6.03;;;;;;;-2.25;43.80;99138.91;4923225;28;20047;-65
2022/03/03 02:25:16;;;;;;;15.13;5.88;;;;;;;-2.27;43.37;99145.97;4924610;28;20054;-65
2022/03/03 02:27:42;;;;;;;10.80;5.55;;;;;;;-2.31;44.12;99133.88;4882185;29;20889;-65
2022/03/03 02:30:08;;;;;;;11.25;6.00;;;;;;;-2.36;43.98;99145.34;4900464;29;20039;-66
2022/03/03 02:32:32;;;;;;;10.75;5.13;;;;;;;-2.38;44.31;99134.09;4917244;28;20410;-69
2022/03/03 02:34:57;;;;;;;6.43;4.35;;;;;;;-2.37;44.22;99141.88;4916131;29;20414;-67
2022/03/03 02:37:22;;;;;;;10.63;6.20;;;;;;;-2.37;43.84;99133.22;4898839;29;20141;-67
2022/03/03 02:39:47;;;;;;;9.60;5.40;;;;;;;-2.32;43.69;99141.75;4921133;28;20038;-66
2022/03/03 02:42:12;;;;;;;12.45;5.65;;;;;;;-2.41;43.89;99139.41;4930148;28;20093;-66
2022/03/03 02:44:37;;;;;;;14.23;5.90;;;;;;;-2.49;43.82;99151.81;4920795;28;20061;-67
2022/03/03 02:47:02;;;;;;;10.27;5.32;;;;;;;-2.51;43.84;99145.75;4917925;28;20435;-69
2022/03/03 02:49:26;;;;;;;9.65;5.45;;;;;;;-2.62;43.77;99139.09;4917646;28;20086;-69
2022/03/03 02:51:51;;;;;;;12.85;5.50;;;;;;;-2.63;43.72;99137.38;4920429;29;20132;-67
2022/03/03 02:54:16;;;;;;;11.40;6.80;;;;;;;-2.61;44.02;99127.75;4921934;28;20414;-67
2022/03/03 02:59:25;;;;;;;11.80;6.00;;;;;;;-2.72;44.32;99116.75;4903566;29;20496;-65
2022/03/03 03:01:50;;;;;;;12.35;5.78;;;;;;;-2.76;44.22;99116.84;4921296;28;20423;-75
2022/03/03 03:04:15;;;;;;;11.00;5.80;;;;;;;-2.71;44.26;99117.59;4919791;29;20504;-76
2022/03/03 03:06:40;;;;;;;16.55;5.97;;;;;;;-2.77;44.85;99105.56;4921199;29;20047;-71
2022/03/03 03:09:04;;;;;;;10.27;4.90;;;;;;;-2.78;44.70;99106.44;4921068;28;20058;-67
2022/03/03 03:11:29;;;;;;;19.23;6.78;;;;;;;-2.86;45.96;99103.19;4920613;29;20046;-67
2022/03/03 03:13:54;;;;;;;17.17;7.45;;;;;;;-2.90;46.71;99104.16;4919875;29;20055;-67
2022/03/03 03:16:18;;;;;;;17.65;6.70;;;;;;;-2.84;45.87;99096.19;4920871;28;20054;-69
2022/03/03 03:18:43;;;;;;;16.42;7.15;;;;;;;-2.74;44.69;99089.84;4919381;29;20046;-71
2022/03/03 03:21:08;;;;;;;15.90;6.35;;;;;;;-2.67;44.65;99099.19;4919158;29;20133;-71
2022/03/03 03:23:32;;;;;;;12.23;5.88;;;;;;;-2.71;44.88;99076.69;4920191;28;20401;-69
2022/03/03 03:25:57;;;;;;;12.68;5.50;;;;;;;-2.72;44.02;99084.59;4920725;28;20166;-73
2022/03/03 03:28:23;;;;;;;10.65;6.88;;;;;;;-2.73;44.24;99081.13;4919540;29;20051;-72
2022/03/03 03:30:49;;;;;;;8.50;5.05;;;;;;;-2.77;44.63;99082.09;4903289;29;20126;-71
2022/03/03 03:33:13;;;;;;;15.73;5.82;;;;;;;-2.82;44.98;99083.94;4919852;29;20046;-70
2022/03/03 03:35:40;;;;;;;9.95;5.70;;;;;;;-2.89;45.40;99081.56;4920415;28;20058;-71
2022/03/03 03:38:05;;;;;;;18.25;5.72;;;;;;;-2.95;45.37;99083.44;4920961;28;20047;-70
2022/03/03 03:40:30;;;;;;;13.82;6.18;;;;;;;-2.96;45.40;99086.09;4919818;29;20393;-71
2022/03/03 03:42:54;;;;;;;10.40;6.13;;;;;;;-2.89;45.17;99091.97;4921024;29;20043;-72
2022/03/03 03:45:19;;;;;;;11.80;6.65;;;;;;;-2.95;45.08;99083.44;4919734;28;20059;-73
2022/03/03 03:47:44;;;;;;;12.38;5.63;;;;;;;-3.00;44.96;99082.69;4903292;29;20557;-72
2022/03/03 03:50:11;;;;;;;12.30;6.30;;;;;;;-3.02;46.04;99104.47;4920419;28;20485;-72
2022/03/03 03:52:36;;;;;;;11.27;5.30;;;;;;;-3.01;44.97;99077.50;4920130;28;20039;-72
2022/03/03 03:55:04;;;;;;;17.17;6.80;;;;;;;-3.03;45.50;99079.28;4919694;28;20050;-73
2022/03/03 03:57:29;;;;;;;8.70;5.50;;;;;;;-3.03;45.53;99084.50;4919002;28;20039;-72
2022/03/03 03:59:53;;;;;;;12.77;6.32;;;;;;;-3.03;45.69;99069.72;4918967;28;20049;-71
2022/03/03 04:02:19;;;;;;;10.30;6.40;;;;;;;-3.06;45.35;99072.44;4918076;28;20090;-73
2022/03/03 04:04:43;;;;;;;21.08;9.30;;;;;;;-3.17;46.94;99071.84;4918956;28;20474;-71
2022/03/03 04:07:08;;;;;;;14.48;6.95;;;;;;;-3.05;46.02;99068.06;4919025;28;20447;-72
2022/03/03 04:09:33;;;;;;;16.92;7.18;;;;;;;-3.09;45.80;99063.81;4919499;28;20058;-72
2022/03/03 04:11:58;;;;;;;18.80;7.40;;;;;;;-3.23;46.69;99065.91;4901633;29;20074;-72
2022/03/03 04:14:22;;;;;;;15.27;6.30;;;;;;;-3.16;46.08;99067.50;4919116;28;20157;-70
2022/03/03 04:16:47;;;;;;;10.70;5.35;;;;;;;-3.16;46.24;99057.06;4919162;28;20046;-70
2022/03/03 04:19:12;;;;;;;21.33;8.00;;;;;;;-3.21;46.05;99066.75;4918859;28;20047;-70
2022/03/03 04:21:36;;;;;;;14.02;6.65;;;;;;;-3.23;46.31;99056.34;4920190;29;20449;-69
2022/03/03 04:24:01;;;;;;;19.20;8.40;;;;;;;-3.35;47.42;99057.50;4920917;29;20063;-69
2022/03/03 04:26:26;;;;;;;17.58;8.82;;;;;;;-3.34;47.45;99053.16;4923430;29;20086;-69
2022/03/03 04:28:51;;;;;;;16.67;6.57;;;;;;;-3.25;46.43;99062.50;4918729;28;20133;-69
2022/03/03 04:31:15;;;;;;;9.00;5.30;;;;;;;-3.23;46.46;99055.50;4919601;29;20120;-70
2022/03/03 04:33:42;;;;;;;11.57;5.85;;;;;;;-3.19;47.17;99051.94;4925177;28;20137;-70
2022/03/03 04:36:06;;;;;;;12.85;5.85;;;;;;;-3.13;46.11;99046.53;4919605;29;20035;-70
2022/03/03 04:38:31;;;;;;;16.85;5.78;;;;;;;-3.07;45.86;99047.25;4919527;29;20047;-72
2022/03/03 04:40:56;;;;;;;11.95;5.93;;;;;;;-3.06;46.41;99046.38;4919730;28;20098;-70
2022/03/03 04:43:21;;;;;;;16.30;7.50;;;;;;;-2.99;46.00;99044.44;4919754;28;20525;-71
2022/03/03 04:45:45;;;;;;;14.27;6.30;;;;;;;-2.91;46.08;99045.06;4902209;29;20066;-70
2022/03/03 04:48:10;;;;;;;9.68;4.75;;;;;;;-2.70;45.38;99046.25;4917950;28;20054;-71
2022/03/03 04:50:35;;;;;;;12.15;6.28;;;;;;;-2.51;45.65;99044.00;4918183;29;20114;-71
2022/03/03 04:53:00;;;;;;;13.00;6.25;;;;;;;-2.23;44.54;99037.06;4919619;28;20121;-70
2022/03/03 04:55:25;;;;;;;10.73;6.10;;;;;;;-2.01;44.14;99040.72;4919794;28;20138;-72
2022/03/03 04:57:49;;;;;;;10.68;5.82;;;;;;;-1.80;44.08;99046.19;4919799;29;20367;-73
2022/03/03 05:00:15;;;;;;;10.45;5.65;;;;;;;-1.70;43.92;99050.25;4919770;28;20130;-68
2022/03/03 05:02:40;;;;;;;8.93;6.07;;;;;;;-1.51;44.12;99059.22;4919571;28;20042;-68
2022/03/03 05:05:05;;;;;;;9.07;5.10;;;;;;;-1.35;43.41;99049.09;4919371;28;20079;-66
2022/03/03 05:07:30;;;;;;;14.43;6.30;;;;;;;-1.16;42.92;99050.22;4919056;28;20134;-68
2022/03/03 05:09:55;;;;;;;12.82;6.15;;;;;;;-0.95;42.72;99048.63;4917856;29;20133;-69
2022/03/03 05:12:19;;;;;;;10.77;6.43;;;;;;;-0.74;42.41;99040.88;4917555;29;20087;-67
2022/03/03 05:14:44;;;;;;;12.63;6.47;;;;;;;-0.48;42.05;99047.78;4916596;28;20043;-67
2022/03/03 05:17:09;;;;;;;12.90;5.70;;;;;;;-0.35;41.78;99040.34;4917805;29;20055;-67
2022/03/03 05:19:34;;;;;;;11.95;5.28;;;;;;;-0.03;41.46;99047.00;4901805;29;20031;-67
2022/03/03 05:21:58;;;;;;;12.55;5.78;;;;;;;0.35;40.20;99048.09;4919289;28;20074;-66
2022/03/03 05:24:23;;;;;;;11.68;5.45;;;;;;;0.85;39.90;99053.06;4918800;28;20069;-68
2022/03/03 05:26:48;;;;;;;14.32;5.82;;;;;;;1.33;39.42;99058.03;4919418;28;20054;-67
2022/03/03 05:29:12;;;;;;;17.88;6.45;;;;;;;1.85;38.24;99056.53;4918599;29;20043;-67
2022/03/03 05:31:37;;;;;;;17.13;6.90;;;;;;;2.17;37.71;99048.03;4919093;28;20103;-68
2022/03/03 05:34:03;;;;;;;11.80;6.97;;;;;;;2.49;37.02;99046.47;4919488;28;20049;-68
2022/03/03 05:36:29;;;;;;;12.95;6.22;;;;;;;2.93;36.24;99046.09;4919097;28;20050;-70
2022/03/03 05:38:56;;;;;;;17.50;6.57;;;;;;;3.53;35.57;99046.50;4918695;28;20035;-70
2022/03/03 05:41:21;;;;;;;12.90;6.68;;;;;;;4.05;34.13;99038.47;4917878;29;20493;-67
2022/03/03 05:43:46;;;;;;;12.38;6.40;;;;;;;4.52;33.85;99039.31;4924561;28;20034;-69
2022/03/03 05:46:11;;;;;;;11.65;6.80;;;;;;;5.07;32.80;99034.38;4906833;28;20049;-68
2022/03/03 05:48:35;;;;;;;16.50;7.45;;;;;;;5.48;32.44;99034.53;4925650;28;20053;-68
2022/03/03 05:51:00;;;;;;;18.92;6.78;;;;;;;5.94;31.27;99028.25;4924657;28;20097;-67
2022/03/03 05:53:26;;;;;;;17.45;8.15;;;;;;;6.33;30.89;99017.75;4922202;28;20414;-67
2022/03/03 05:55:57;;;;;;;12.65;7.32;;;;;;;6.70;30.10;99013.59;4922079;28;20043;-68
2022/03/03 05:58:25;;;;;;;13.18;7.20;;;;;;;7.00;29.17;99009.88;4921208;29;20043;-68
2022/03/03 06:00:58;;;;;;;21.65;7.22;;;;;;;7.27;28.80;99014.16;4925763;29;20051;-68
2022/03/03 06:03:28;;;;;;;15.25;7.63;;;;;;;7.64;29.24;99012.47;4927682;28;20043;-67
2022/03/03 06:05:57;;;;;;;17.50;6.75;;;;;;;8.19;28.32;99015.69;4926974;28;20061;-69
2022/03/03 06:08:30;;;;;;;18.45;7.85;;;;;;;8.66;27.31;99012.28;4894105;29;20094;-68
2022/03/03 06:11:01;;;;;;;14.73;6.70;;;;;;;8.94;27.19;99006.59;4927728;28;20055;-67
2022/03/03 06:13:30;;;;;;;21.90;7.85;;;;;;;8.96;26.25;99006.47;4926417;28;20049;-68
2022/03/03 06:15:55;;;;;;;12.82;7.10;;;;;;;9.02;27.23;99004.22;4925681;28;20058;-66
2022/03/03 06:18:25;;;;;;;20.40;7.30;;;;;;;9.22;26.30;99001.88;4928034;28;20509;-67
2022/03/03 06:20:51;;;;;;;19.88;7.90;;;;;;;9.52;26.21;98993.34;4927114;28;20051;-67
2022/03/03 06:23:15;;;;;;;17.55;7.63;;;;;;;9.95;25.79;98993.47;4926762;28;20663;-67
2022/03/03 06:25:43;;;;;;;19.60;7.47;;;;;;;10.36;25.62;98985.72;4925365;28;20051;-69
2022/03/03 06:28:08;;;;;;;19.02;7.10;;;;;;;10.57;24.91;98985.78;4926965;28;20494;-67
2022/03/03 06:30:33;;;;;;;18.33;6.93;;;;;;;11.01;24.67;98979.44;4923935;28;20050;-70
2022/03/03 06:32:58;;;;;;;17.25;6.35;;;;;;;11.61;24.09;98984.06;4905358;29;20047;-68
2022/03/03 06:35:23;;;;;;;14.30;7.47;;;;;;;12.36;23.28;98980.16;4905766;29;20043;-68
2022/03/03 06:37:47;;;;;;;16.92;6.90;;;;;;;13.14;22.77;98967.69;4922201;28;20047;-67
2022/03/03 06:40:13;;;;;;;21.85;8.05;;;;;;;13.79;21.40;98972.25;4922590;28;20050;-68
2022/03/03 06:42:37;;;;;;;16.48;8.15;;;;;;;14.33;20.72;98970.63;4922083;28;20133;-65
2022/03/03 06:45:03;;;;;;;18.48;6.97;;;;;;;14.34;20.93;98965.06;4921800;28;20047;-66
2022/03/03 06:47:28;;;;;;;14.27;7.50;;;;;;;14.62;21.06;98970.47;4920487;29;20047;-67
2022/03/03 06:49:52;;;;;;;16.85;7.28;;;;;;;14.59;20.81;98971.59;4920905;28;20179;-68
2022/03/03 06:52:17;;;;;;;14.95;6.63;;;;;;;13.46;21.70;98949.50;4917318;29;20051;-69
2022/03/03 06:54:49;;;;;;;16.73;9.27;;;;;;;12.26;22.41;98966.78;4920256;28;20046;-69
2022/03/03 06:57:19;;;;;;;18.50;7.47;;;;;;;11.02;24.09;98958.97;4919628;28;20055;-68
2022/03/03 06:59:46;;;;;;;10.80;6.75;;;;;;;10.01;25.25;98971.69;4905565;29;20054;-69
2022/03/03 07:02:10;;;;;;;12.65;7.57;;;;;;;9.47;25.94;98967.09;4921950;29;20486;-68
2022/03/03 07:04:35;;;;;;;15.82;7.40;;;;;;;9.36;26.61;98961.75;4927759;29;20446;-69
2022/03/03 07:07:00;;;;;;;16.65;7.90;;;;;;;9.37;26.17;98960.78;4925988;28;20114;-67
2022/03/03 07:09:25;;;;;;;20.13;7.55;;;;;;;9.73;25.95;98952.56;4926770;28;20082;-68
2022/03/03 07:11:50;;;;;;;9.85;7.00;;;;;;;10.47;25.39;98960.88;4923129;29;20075;-75
2022/03/03 07:14:15;;;;;;;14.05;7.68;;;;;;;11.24;24.35;98964.16;4923367;28;20055;-70
2022/03/03 07:17:05;;;;;;;15.52;7.80;;;;;;;12.28;22.96;98950.63;4918393;28;20039;-71
2022/03/03 07:19:39;;;;;;;14.02;7.43;;;;;;;13.40;21.66;98942.91;4919152;28;20043;-72
2022/03/03 07:22:51;;;;;;;27.15;8.77;;;;;;;14.92;21.43;98945.09;4902000;29;20506;-70
2022/03/03 07:25:18;;;;;;;22.05;8.57;;;;;;;15.71;20.18;98931.59;4878585;29;20119;-70
2022/03/03 07:27:45;;;;;;;22.60;8.48;;;;;;;16.46;19.40;98929.91;4878891;29;20103;-72
2022/03/03 07:30:15;;;;;;;29.15;10.52;;;;;;;17.24;18.35;98931.19;4878803;29;20052;-74
2022/03/03 07:33:06;;;;;;;17.25;8.90;;;;;;;17.94;17.56;98931.44;4863048;29;20052;-71
2022/03/03 07:35:34;;;;;;;16.52;7.85;;;;;;;18.45;17.20;98938.13;4878584;29;20052;-71
2022/03/03 07:38:24;;;;;;;18.60;8.82;;;;;;;19.20;16.49;98935.59;4880430;29;20078;-70
2022/03/03 07:40:49;;;;;;;21.75;9.57;;;;;;;19.65;16.46;98925.75;4884746;29;20056;-70
2022/03/03 07:43:17;;;;;;;20.42;8.30;;;;;;;20.07;16.30;98921.59;4869814;29;20507;-71
2022/03/03 07:45:43;;;;;;;22.65;8.63;;;;;;;20.83;16.04;98921.06;4885952;29;20056;-72
2022/03/03 07:48:08;;;;;;;25.17;8.45;;;;;;;21.54;15.51;98913.81;4867140;29;20036;-72
2022/03/03 07:50:39;;;;;;;16.60;8.23;;;;;;;22.19;14.66;98914.44;4881142;29;20459;-71
2022/03/03 07:53:04;;;;;;;15.73;8.73;;;;;;;22.50;14.57;98909.34;4886360;29;20044;-73
2022/03/03 07:55:32;;;;;;;17.27;8.88;;;;;;;22.57;14.30;98906.66;4881037;29;20052;-71
2022/03/03 07:57:59;;;;;;;14.15;8.25;;;;;;;22.92;13.90;98916.38;4882571;29;20043;-72
2022/03/03 08:00:27;;;;;;;18.40;9.13;;;;;;;23.14;13.72;98914.31;4920376;29;20051;-71
2022/03/03 08:02:53;;;;;;;15.90;9.02;;;;;;;23.76;13.52;98915.81;4922017;28;20046;-72
2022/03/03 08:05:18;;;;;;;17.02;8.20;;;;;;;24.27;13.02;98906.91;4920767;29;20123;-72
2022/03/03 08:07:45;;;;;;;19.80;9.00;;;;;;;24.59;12.48;98908.66;4919587;29;20043;-72
2022/03/03 08:10:12;;;;;;;18.02;9.43;;;;;;;25.17;12.41;98906.63;4919547;29;20066;-72
2022/03/03 08:12:38;;;;;;;14.27;7.35;;;;;;;25.89;12.11;98904.34;4920460;28;20039;-73
2022/03/03 08:15:03;;;;;;;13.68;7.90;;;;;;;26.52;11.67;98896.72;4920762;28;20055;-70
2022/03/03 08:17:31;;;;;;;12.57;7.53;;;;;;;27.01;11.32;98903.81;4920300;28;20049;-70
2022/03/03 08:19:55;;;;;;;12.23;7.25;;;;;;;27.48;11.05;98898.44;4920487;28;20074;-69
2022/03/03 08:22:24;;;;;;;13.25;6.90;;;;;;;27.75;10.77;98899.69;4920248;28;20031;-70
2022/03/03 08:24:54;;;;;;;10.70;7.38;;;;;;;27.77;10.62;98897.50;4919899;28;20585;-69
2022/03/03 08:27:20;;;;;;;18.80;7.75;;;;;;;28.09;10.63;98902.63;4919865;28;20553;-70
2022/03/03 08:29:45;;;;;;;11.60;7.30;;;;;;;28.70;10.44;98895.69;4919956;28;20040;-70
2022/03/03 08:32:16;;;;;;;13.27;7.15;;;;;;;29.04;9.28;98902.09;4920383;28;20047;-69
2022/03/03 08:35:07;;;;;;;8.57;6.97;;;;;;;29.42;9.13;98901.44;4920124;28;20447;-72
2022/03/03 08:37:40;;;;;;;17.17;8.23;;;;;;;29.19;9.23;98895.00;4902360;29;20050;-71
2022/03/03 08:40:11;;;;;;;15.63;7.53;;;;;;;29.47;9.39;98896.84;4919966;28;20043;-71
2022/03/03 08:42:43;;;;;;;12.27;7.03;;;;;;;30.12;9.52;98903.63;4919214;28;20039;-70
2022/03/03 08:45:10;;;;;;;11.45;7.07;;;;;;;30.46;8.97;98899.69;4919865;28;20078;-71
2022/03/03 08:47:35;;;;;;;13.95;7.07;;;;;;;30.31;8.88;98902.22;4920144;28;20062;-70
2022/03/03 08:50:08;;;;;;;13.60;6.70;;;;;;;30.06;8.73;98899.97;4919168;29;20597;-72
2022/03/03 08:52:33;;;;;;;14.60;7.27;;;;;;;30.08;8.61;98891.47;4919389;28;20051;-70
2022/03/03 08:54:57;;;;;;;14.13;7.10;;;;;;;29.38;9.07;98884.63;4919784;29;20058;-69
2022/03/03 08:57:22;;;;;;;10.95;6.63;;;;;;;29.72;8.87;98896.41;4919793;28;20050;-72
2022/03/03 08:59:47;;;;;;;16.67;8.05;;;;;;;29.99;8.97;98893.84;4918943;29;20054;-71
2022/03/03 09:02:16;;;;;;;12.02;7.65;;;;;;;30.56;8.75;98897.09;4918118;29;20050;-72
2022/03/03 09:04:41;;;;;;;19.70;8.57;;;;;;;29.87;8.87;98885.66;4917971;29;20062;-72
2022/03/03 09:07:06;;;;;;;16.33;7.95;;;;;;;29.92;8.79;98888.47;4918051;29;20133;-73
2022/03/03 09:09:31;;;;;;;12.40;7.00;;;;;;;30.31;8.95;98885.75;4919563;28;20137;-72
2022/03/03 09:11:55;;;;;;;13.77;7.85;;;;;;;31.07;8.79;98888.53;4918254;29;20461;-70
2022/03/03 09:14:20;;;;;;;13.30;7.90;;;;;;;31.75;8.34;98898.81;4919096;29;20047;-71
2022/03/03 09:16:45;;;;;;;11.68;7.68;;;;;;;32.14;8.13;98893.00;4919017;28;20051;-71
2022/03/03 09:19:09;;;;;;;10.60;7.68;;;;;;;31.94;7.99;98893.72;4917640;29;20054;-72
2022/03/03 09:21:34;;;;;;;15.75;8.20;;;;;;;31.42;8.06;98890.81;4918773;28;20129;-72
2022/03/03 09:23:59;;;;;;;19.95;8.07;;;;;;;31.30;7.99;98886.31;4917571;29;20066;-72
2022/03/03 09:26:24;;;;;;;13.85;7.57;;;;;;;31.30;8.11;98875.28;4918771;29;20047;-67
2022/03/03 09:28:48;;;;;;;11.90;7.47;;;;;;;31.58;8.21;98876.06;4919047;28;20035;-69
2022/03/03 09:31:13;;;;;;;12.38;7.97;;;;;;;30.21;8.47;98877.34;4918903;28;20184;-73
2022/03/03 09:33:38;;;;;;;11.35;7.80;;;;;;;30.04;9.09;98877.41;4919354;28;20043;-69
2022/03/03 09:36:04;;;;;;;12.30;7.50;;;;;;;29.76;8.99;98867.38;4918465;28;20050;-68
2022/03/03 09:38:29;;;;;;;15.27;8.50;;;;;;;28.95;9.18;98859.69;4918561;29;20573;-70
2022/03/03 09:40:53;;;;;;;14.13;7.97;;;;;;;28.11;9.65;98859.34;4918634;28;20406;-71
2022/03/03 09:43:18;;;;;;;10.93;7.25;;;;;;;28.11;9.70;98864.81;4917358;29;20514;-69
2022/03/03 09:45:43;;;;;;;15.70;7.82;;;;;;;28.55;9.50;98857.84;4916931;29;20069;-70
2022/03/03 09:48:09;;;;;;;14.43;8.18;;;;;;;29.02;9.32;98858.44;4917057;28;20049;-68
2022/03/03 09:50:37;;;;;;;16.83;7.57;;;;;;;29.83;9.00;98856.19;4918101;28;20204;-69
2022/03/03 09:53:22;;;;;;;10.82;7.72;;;;;;;30.33;8.44;98854.16;4918027;28;20074;-68
2022/03/03 09:55:49;;;;;;;11.77;7.18;;;;;;;30.69;8.35;98843.59;4916777;29;20133;-69
2022/03/03 09:58:15;;;;;;;11.95;7.20;;;;;;;30.70;8.72;98852.66;4917776;28;20576;-72
2022/03/03 10:00:41;;;;;;;9.55;6.10;;;;;;;30.71;8.39;98849.63;4916792;28;20050;-72
2022/03/03 10:03:09;;;;;;;10.45;7.07;;;;;;;29.94;8.56;98841.50;4916708;29;20077;-73
2022/03/03 10:05:45;;;;;;;11.80;7.18;;;;;;;29.61;8.99;98842.41;4917162;29;20123;-74
2022/03/03 10:08:12;;;;;;;10.13;6.63;;;;;;;29.36;9.03;98836.50;4917913;28;20046;-72
2022/03/03 10:10:40;;;;;;;11.15;7.18;;;;;;;29.85;8.77;98837.53;4920149;28;20138;-71
2022/03/03 10:13:06;;;;;;;13.43;7.47;;;;;;;29.89;8.62;98827.72;4918238;28;20038;-72
2022/03/03 10:15:32;;;;;;;10.52;7.20;;;;;;;28.86;8.93;98831.81;4916280;29;20051;-72
2022/03/03 10:18:06;;;;;;;12.75;7.10;;;;;;;28.27;9.44;98828.47;4916567;29;20043;-72
2022/03/03 10:20:46;;;;;;;10.15;6.18;;;;;;;27.39;9.90;98825.94;4918139;28;20387;-71
2022/03/03 10:23:11;;;;;;;17.60;8.15;;;;;;;26.22;10.41;98822.00;4917709;28;20395;-72
2022/03/03 10:25:41;;;;;;;10.52;7.43;;;;;;;25.59;10.57;98823.16;4921779;28;20071;-72
2022/03/03 10:28:11;;;;;;;16.50;7.72;;;;;;;24.04;11.52;98812.88;4925927;29;20110;-72
2022/03/03 10:30:58;;;;;;;11.38;6.80;;;;;;;23.79;11.79;98811.97;4928942;28;20051;-74
2022/03/03 10:33:25;;;;;;;10.82;7.28;;;;;;;21.97;12.49;98814.09;4932686;28;20163;-73
2022/03/03 10:36:12;;;;;;;12.98;7.03;;;;;;;19.86;14.13;98812.25;4910437;29;20498;-76
2022/03/03 10:39:01;;;;;;;12.45;7.22;;;;;;;18.08;15.66;98811.16;4916293;29;20490;-73
2022/03/03 10:41:33;;;;;;;19.70;7.47;;;;;;;16.63;16.44;98807.84;4916220;29;20070;-74
2022/03/03 10:44:01;;;;;;;12.63;7.15;;;;;;;15.03;17.63;98806.09;4916308;29;20051;-72
2022/03/03 10:46:26;;;;;;;12.35;7.18;;;;;;;13.62;19.79;98812.31;4917610;28;20144;-73
2022/03/03 10:48:50;;;;;;;10.73;6.72;;;;;;;13.48;18.70;98804.78;4917173;28;20139;-73
2022/03/03 10:51:16;;;;;;;14.43;7.63;;;;;;;12.56;20.52;98810.78;4917255;28;20058;-71
2022/03/03 10:53:44;;;;;;;10.20;5.93;;;;;;;12.22;20.88;98804.19;4917561;28;20047;-72
2022/03/03 10:56:12;;;;;;;14.25;6.68;;;;;;;11.21;21.78;98813.19;4917485;28;20054;-72
2022/03/03 10:58:53;;;;;;;14.27;7.28;;;;;;;10.45;23.99;98805.59;4919851;29;20051;-73
2022/03/03 11:01:23;;;;;;;16.50;8.07;;;;;;;9.84;24.21;98806.16;4918207;28;20529;-71
2022/03/03 11:03:51;;;;;;;10.55;6.65;;;;;;;9.68;24.16;98805.72;4917630;28;20458;-71
2022/03/03 11:06:28;;;;;;;11.00;5.93;;;;;;;9.61;23.88;98814.31;4920204;28;20054;-68
2022/03/03 11:08:57;;;;;;;14.52;6.68;;;;;;;9.55;23.65;98807.69;4918930;28;20071;-66
2022/03/03 11:11:24;;;;;;;11.48;6.63;;;;;;;9.26;25.49;98804.69;4919769;28;20106;-66
2022/03/03 11:13:50;;;;;;;10.90;6.85;;;;;;;9.22;25.08;98805.91;4920947;29;20414;-67
2022/03/03 11:16:23;;;;;;;14.43;7.53;;;;;;;9.19;24.78;98802.63;4904165;29;20059;-67
2022/03/03 11:18:49;;;;;;;12.75;6.97;;;;;;;8.93;25.04;98802.03;4921114;28;20506;-65
2022/03/03 11:21:14;;;;;;;13.10;6.97;;;;;;;8.60;25.72;98800.16;4921944;29;20446;-66
2022/03/03 11:23:55;;;;;;;13.68;7.72;;;;;;;8.58;25.97;98804.75;4921376;28;20039;-66
2022/03/03 11:26:26;;;;;;;15.20;7.30;;;;;;;8.47;26.05;98800.25;4921246;28;20525;-66
2022/03/03 11:29:07;;;;;;;14.25;6.63;;;;;;;8.30;27.10;98793.56;4921403;28;20047;-67